• Join FlightAware (Why Join?)
  • Login
  • US Flag 
02:02AM EST


 

Airport Tracker/Info


-or-


 

Live Flight TrackerFlight Track Log ✈ RPA3228 ✈ 05-Sep-2013 ✈ KBNA - KDCA

Flight Track Log - Related Links

Times and Time Zones

All times are in EDT time to prevent confusion due to time zone crossing. See the RPA3228 flight status page for this flight to view local times or setup timezone preferences in your user account.

Time Position Orientation Groundspeed Altitude Reporting Facility
EDT Latitude Longitude Course Direction KTS MPH feet Rate Location/Type
07:53AM 36.1333 -86.6833 68° East 153 176 1,400  Level Nashville TRACON
07:53AM 36.1333 -86.7167 270° West 166 191 2,300 1,380 Climbing Nashville TRACON
07:54AM 36.1500 -86.7833 287° West 242 278 3,500 2,400 Climbing Nashville TRACON
07:55AM 36.2000 -86.7667 15° North 259 298 7,100 3,120 Climbing Nashville TRACON
07:56AM 36.1950 -86.1020 80° East  Level FlightAware Approximate
07:57AM 36.2387 -85.9699 64° Northeast  Level FlightAware Approximate
07:57AM 36.2014 -86.6611 89° East 285 328 10,500  Level Memphis Center
07:58AM 36.2870 -85.8391 68° East  Level FlightAware Approximate
07:58AM 36.2022 -86.5531 89° East 305 351 12,700  Level Memphis Center
07:59AM 36.2008 -86.4400 91° East 317 365 15,200 2,280 Climbing Memphis Center
08:00AM 36.2014 -86.3214 90° East 338 389 17,300 1,740 Climbing Memphis Center
08:01AM 36.1997 -86.2083 91° East 349 402 18,700 1,560 Climbing Memphis Center
08:02AM 36.2036 -86.0797 88° East 367 422 20,500 1,680 Climbing Memphis Center
08:04AM 36.2919 -85.8633 63° Northeast 394 453 23,500 1,560 Climbing Indianapolis Center
08:05AM 36.3503 -85.7375 60° Northeast 399 459 25,100 1,560 Climbing Indianapolis Center
08:06AM 36.4086 -85.6142 60° Northeast 410 472 26,700 1,500 Climbing Indianapolis Center
08:07AM 36.4692 -85.4872 59° Northeast 421 484 28,200 1,560 Climbing Indianapolis Center
08:08AM 36.5294 -85.3583 60° Northeast 429 494 29,900 1,680 Climbing Indianapolis Center
08:09AM 36.6050 -85.1994 59° Northeast 442 509 31,700 1,740 Climbing Indianapolis Center
08:10AM 36.6528 -85.0539 68° East 451 519 33,500 1,560 Climbing Indianapolis Center
08:11AM 36.6964 -84.9125 69° East 438 504 35,000 720 Climbing Indianapolis Center
08:12AM 36.7361 -84.7792 70° East 411 473 35,000  Level Indianapolis Center
08:13AM 36.7758 -84.6492 69° East 401 461 35,000  Level Indianapolis Center
08:14AM 36.8161 -84.5167 69° East 406 467 35,000  Level Indianapolis Center
08:15AM 36.8556 -84.3875 69° East 405 466 35,000  Level Indianapolis Center
08:16AM 36.8944 -84.2558 70° East 403 464 35,000  Level Indianapolis Center
08:17AM 36.9411 -84.1000 69° East 408 470 35,000  Level Indianapolis Center
08:18AM 36.9817 -83.9669 69° East 409 471 35,000  Level Indianapolis Center
08:19AM 37.0247 -83.8367 67° East 406 467 35,000  Level Indianapolis Center
08:20AM 37.0847 -83.7172 58° Northeast 402 463 35,000  Level Indianapolis Center
08:21AM 37.1389 -83.5958 61° Northeast 399 459 35,000  Level Indianapolis Center
08:22AM 37.1933 -83.4758 60° Northeast 396 456 35,000  Level Indianapolis Center
08:23AM 37.2472 -83.3531 61° Northeast 398 458 35,000  Level Indianapolis Center
08:24AM 37.2994 -83.2331 61° Northeast 392 451 35,000  Level Indianapolis Center
08:25AM 37.3619 -83.0906 61° Northeast 393 452 35,000  Level Indianapolis Center
08:26AM 37.4144 -82.9664 62° Northeast 397 457 35,000  Level Indianapolis Center
08:27AM 37.4436 -82.8258 75° East 418 481 35,000  Level Indianapolis Center
08:28AM 37.4817 -82.6911 70° East 409 471 35,000  Level Indianapolis Center
08:29AM 37.5189 -82.5578 71° East 404 465 35,000  Level Indianapolis Center
08:30AM 37.5553 -82.4261 71° East 400 460 35,000  Level Indianapolis Center
08:31AM 37.5931 -82.2933 70° East 399 459 35,000  Level Indianapolis Center
08:32AM 37.6300 -82.1600 71° East 400 460 35,000  Level Indianapolis Center
08:33AM 37.6667 -82.0236 71° East 406 467 35,000  Level Indianapolis Center
08:34AM 37.7111 -81.8664 70° East 407 468 35,000  Level Indianapolis Center
08:35AM 37.7467 -81.7325 71° East 403 464 35,000  Level Indianapolis Center
08:36AM 37.7833 -81.5983 71° East 403 464 35,000  Level Indianapolis Center
08:37AM 37.8183 -81.4692 71° East 402 463 35,000  Level Indianapolis Center
08:38AM 37.8575 -81.3275 71° East 402 463 35,000  Level Indianapolis Center
08:39AM 37.8919 -81.1961 72° East 396 456 35,000  Level Indianapolis Center
08:40AM 37.9269 -81.0644 71° East 396 456 35,000  Level Indianapolis Center
08:42AM 37.9622 -80.9311 71° East 399 459 35,000  Level Indianapolis Center
08:43AM 37.9972 -80.7978 72° East 400 460 35,000  Level Indianapolis Center
08:44AM 38.0375 -80.6378 72° East 399 459 35,000  Level Indianapolis Center
08:45AM 38.0739 -80.5042 71° East 400 460 35,000  Level Indianapolis Center
08:46AM 38.1139 -80.3636 70° East 396 456 35,000  Level Washington Center
08:47AM 38.1483 -80.2283 72° East 396 456 35,000  Level Washington Center
08:48AM 38.1847 -80.0958 71° East 396 456 35,000  Level Washington Center
08:49AM 38.2189 -79.9606 72° East 396 456 35,000  Level Washington Center
08:50AM 38.2575 -79.8119 72° East 396 456 35,000  Level Washington Center
08:51AM 38.2956 -79.6792 70° East 396 456 35,000 -180 Level Washington Center
08:52AM 38.3417 -79.5467 66° East 396 456 34,700 -1,320 Descending Washington Center
08:53AM 38.3900 -79.4036 67° East 416 479 32,400 -2,580 Descending Washington Center
08:54AM 38.4347 -79.2417 71° East 426 490 29,600 -2,640 Descending Washington Center
08:55AM 38.4622 -79.0917 77° East 436 502 27,300 -1,380 Descending Washington Center
08:56AM 38.4872 -78.9444 78° East 436 502 27,000 -900 Descending Washington Center
08:57AM 38.5075 -78.8100 79° East 431 496 25,500 -1,860 Descending Washington Center
08:58AM 38.5303 -78.6625 79° East 431 496 23,300 -1,800 Descending Washington Center
08:59AM 38.5525 -78.5225 78° East 420 483 22,000 -1,200 Descending Washington Center
09:00AM 38.5725 -78.3853 79° East 410 472 21,000 -1,440 Descending Washington Center
09:01AM 38.5961 -78.2561 77° East 386 444 19,200 -1,740 Descending Washington Center
09:02AM 38.6367 -78.1219 69° East 386 444 17,500 -1,800 Descending Washington Center
09:03AM 38.6767 -77.9983 67° East 381 438 15,700 -1,800 Descending Washington Center
09:04AM 38.7144 -77.8797 68° East 373 429 13,900 -1,680 Descending Washington Center
09:05AM 38.7622 -77.7828 58° Northeast 341 392 12,400 -1,560 Descending Washington Center
09:06AM 38.8222 -77.6914 50° Northeast 309 356 10,900 -1,380 Descending Washington Center
09:07AM 38.8500 -77.6167 64° Northeast 312 359 10,100 -1,260 Descending Potomac TRACON
09:07AM 38.8833 -77.5333 63° Northeast 313 360 8,900 -1,320 Descending Potomac TRACON
09:08AM 38.9000 -77.4167 80° East 308 354 7,600 -1,320 Descending Potomac TRACON
09:09AM 38.8667 -77.3333 117° Southeast 288 331 6,300 -840 Descending Potomac TRACON
09:10AM 38.8333 -77.2500 117° Southeast 240 276 6,000 -180 Descending Potomac TRACON
09:11AM 38.8000 -77.1833 123° Southeast 236 272 6,000 -420 Level Potomac TRACON
09:12AM 38.7667 -77.1167 123° Southeast 234 269 5,300 -480 Descending Potomac TRACON
09:13AM 38.7000 -77.1167 180° South 218 251 5,000 -180 Descending Potomac TRACON
09:14AM 38.6333 -77.1000 169° South 199 229 5,000  Level Potomac TRACON
09:15AM 38.5833 -77.1000 180° South 192 221 5,000  Level Potomac TRACON
09:16AM 38.5333 -77.1000 180° South 191 220 5,000 -60 Level Potomac TRACON
09:17AM 38.4833 -77.1000 180° South 190 219 4,900 -540 Descending Potomac TRACON
09:18AM 38.4833 -77.0500 90° East 203 234 4,000 -480 Descending Potomac TRACON
09:19AM 38.5167 -77.0167 38° Northeast 179 206 4,000  Level Potomac TRACON
09:20AM 38.5667 -77.0167 360° North 173 199 4,000  Level Potomac TRACON
09:21AM 38.6167 -77.0167 360° North 173 199 4,000 -360 Level Potomac TRACON
09:22AM 38.6667 -77.0167 360° North 170 196 3,300 -780 Descending Potomac TRACON
09:23AM 38.7167 -77.0167 360° North 160 184 2,500 -840 Descending Potomac TRACON
09:24AM 38.7500 -77.0333 339° North 160 184 1,700 -780 Descending Potomac TRACON
09:25AM 38.8000 -77.0333 360° North 136 157 1,100 -600 Descending Potomac TRACON
09:26AM 38.8333 -77.0167 21° North 112 129 600 -480 Descending Potomac TRACON